sensor_id;sensor_type;location;lat;lon;timestamp;P1;durP1;ratioP1;P2;durP2;ratioP2
27265;SDS011;14766;51.380;13.762;2023-12-20T00:02:20;7.65;;;3.85;;
27265;SDS011;14766;51.380;13.762;2023-12-20T00:04:47;5.32;;;3.92;;
27265;SDS011;14766;51.380;13.762;2023-12-20T00:07:15;8.35;;;4.53;;
27265;SDS011;14766;51.380;13.762;2023-12-20T00:09:42;5.22;;;3.63;;
27265;SDS011;14766;51.380;13.762;2023-12-20T00:12:09;4.45;;;3.28;;
27265;SDS011;14766;51.380;13.762;2023-12-20T00:14:36;5.97;;;3.65;;
27265;SDS011;14766;51.380;13.762;2023-12-20T00:17:04;4.38;;;3.40;;
27265;SDS011;14766;51.380;13.762;2023-12-20T00:19:31;4.53;;;3.40;;
27265;SDS011;14766;51.380;13.762;2023-12-20T00:21:58;4.95;;;3.42;;
27265;SDS011;14766;51.380;13.762;2023-12-20T00:24:26;4.07;;;3.40;;
27265;SDS011;14766;51.380;13.762;2023-12-20T00:26:54;4.70;;;3.50;;
27265;SDS011;14766;51.380;13.762;2023-12-20T00:29:21;4.63;;;3.40;;
27265;SDS011;14766;51.380;13.762;2023-12-20T00:31:49;4.47;;;3.67;;
27265;SDS011;14766;51.380;13.762;2023-12-20T00:34:16;4.80;;;3.83;;
27265;SDS011;14766;51.380;13.762;2023-12-20T00:36:43;4.90;;;3.70;;
27265;SDS011;14766;51.380;13.762;2023-12-20T00:39:10;3.95;;;3.50;;
27265;SDS011;14766;51.380;13.762;2023-12-20T00:41:37;4.13;;;3.70;;
27265;SDS011;14766;51.380;13.762;2023-12-20T00:44:04;5.38;;;4.10;;
27265;SDS011;14766;51.380;13.762;2023-12-20T00:46:32;5.38;;;3.80;;
27265;SDS011;14766;51.380;13.762;2023-12-20T00:49:00;5.72;;;4.10;;
27265;SDS011;14766;51.380;13.762;2023-12-20T00:51:28;5.30;;;3.80;;
27265;SDS011;14766;51.380;13.762;2023-12-20T00:53:55;5.72;;;4.25;;
27265;SDS011;14766;51.380;13.762;2023-12-20T00:56:22;4.95;;;3.80;;
27265;SDS011;14766;51.380;13.762;2023-12-20T00:58:49;5.10;;;3.83;;
27265;SDS011;14766;51.380;13.762;2023-12-20T01:01:17;4.57;;;3.72;;
27265;SDS011;14766;51.380;13.762;2023-12-20T01:03:44;5.05;;;3.70;;
27265;SDS011;14766;51.380;13.762;2023-12-20T01:06:11;4.88;;;3.90;;
27265;SDS011;14766;51.380;13.762;2023-12-20T01:08:38;5.20;;;3.88;;
27265;SDS011;14766;51.380;13.762;2023-12-20T01:11:06;4.88;;;3.70;;
27265;SDS011;14766;51.380;13.762;2023-12-20T01:13:33;4.72;;;3.67;;
27265;SDS011;14766;51.380;13.762;2023-12-20T01:16:00;4.97;;;3.47;;
27265;SDS011;14766;51.380;13.762;2023-12-20T01:18:28;4.82;;;3.90;;
27265;SDS011;14766;51.380;13.762;2023-12-20T01:20:55;5.07;;;4.00;;
27265;SDS011;14766;51.380;13.762;2023-12-20T01:23:22;4.50;;;3.50;;
27265;SDS011;14766;51.380;13.762;2023-12-20T01:25:49;4.50;;;3.75;;
27265;SDS011;14766;51.380;13.762;2023-12-20T01:28:16;6.85;;;3.42;;
27265;SDS011;14766;51.380;13.762;2023-12-20T01:30:43;6.00;;;4.25;;
27265;SDS011;14766;51.380;13.762;2023-12-20T01:33:10;4.60;;;3.63;;
27265;SDS011;14766;51.380;13.762;2023-12-20T01:35:38;4.85;;;4.03;;
27265;SDS011;14766;51.380;13.762;2023-12-20T01:38:05;3.90;;;3.25;;
27265;SDS011;14766;51.380;13.762;2023-12-20T01:40:32;4.50;;;3.58;;
27265;SDS011;14766;51.380;13.762;2023-12-20T01:43:01;4.93;;;3.78;;
27265;SDS011;14766;51.380;13.762;2023-12-20T01:45:33;3.97;;;3.58;;
27265;SDS011;14766;51.380;13.762;2023-12-20T01:48:00;4.63;;;3.10;;
27265;SDS011;14766;51.380;13.762;2023-12-20T01:50:29;4.00;;;3.33;;
27265;SDS011;14766;51.380;13.762;2023-12-20T01:52:58;3.58;;;3.05;;
27265;SDS011;14766;51.380;13.762;2023-12-20T01:55:27;4.20;;;2.90;;
27265;SDS011;14766;51.380;13.762;2023-12-20T01:58:00;4.25;;;2.70;;
27265;SDS011;14766;51.380;13.762;2023-12-20T02:00:29;3.33;;;2.80;;
27265;SDS011;14766;51.380;13.762;2023-12-20T02:02:57;3.97;;;2.95;;
27265;SDS011;14766;51.380;13.762;2023-12-20T02:05:29;3.88;;;2.55;;
27265;SDS011;14766;51.380;13.762;2023-12-20T02:07:57;3.63;;;2.85;;
27265;SDS011;14766;51.380;13.762;2023-12-20T02:10:25;4.82;;;3.20;;
27265;SDS011;14766;51.380;13.762;2023-12-20T02:12:52;4.30;;;3.22;;
27265;SDS011;14766;51.380;13.762;2023-12-20T02:15:19;3.65;;;2.92;;
27265;SDS011;14766;51.380;13.762;2023-12-20T02:17:47;4.25;;;3.10;;
27265;SDS011;14766;51.380;13.762;2023-12-20T02:20:15;3.70;;;2.78;;
27265;SDS011;14766;51.380;13.762;2023-12-20T02:22:42;3.90;;;2.90;;
27265;SDS011;14766;51.380;13.762;2023-12-20T02:25:09;3.38;;;2.85;;
27265;SDS011;14766;51.380;13.762;2023-12-20T02:27:36;3.45;;;2.70;;
27265;SDS011;14766;51.380;13.762;2023-12-20T02:30:05;3.47;;;2.83;;
27265;SDS011;14766;51.380;13.762;2023-12-20T02:32:32;3.45;;;2.67;;
27265;SDS011;14766;51.380;13.762;2023-12-20T02:35:01;4.90;;;2.80;;
27265;SDS011;14766;51.380;13.762;2023-12-20T02:37:28;4.70;;;2.60;;
27265;SDS011;14766;51.380;13.762;2023-12-20T02:39:55;3.45;;;2.58;;
27265;SDS011;14766;51.380;13.762;2023-12-20T02:42:22;2.92;;;2.33;;
27265;SDS011;14766;51.380;13.762;2023-12-20T02:44:49;2.97;;;2.22;;
27265;SDS011;14766;51.380;13.762;2023-12-20T02:47:17;3.13;;;2.70;;
27265;SDS011;14766;51.380;13.762;2023-12-20T02:49:44;2.60;;;2.20;;
27265;SDS011;14766;51.380;13.762;2023-12-20T02:52:11;3.45;;;2.40;;
27265;SDS011;14766;51.380;13.762;2023-12-20T02:54:38;3.17;;;2.30;;
27265;SDS011;14766;51.380;13.762;2023-12-20T02:57:05;2.58;;;2.17;;
27265;SDS011;14766;51.380;13.762;2023-12-20T02:59:32;3.33;;;2.30;;
27265;SDS011;14766;51.380;13.762;2023-12-20T03:02:00;3.58;;;2.58;;
27265;SDS011;14766;51.380;13.762;2023-12-20T03:04:28;2.67;;;2.13;;
27265;SDS011;14766;51.380;13.762;2023-12-20T03:06:55;2.75;;;2.30;;
27265;SDS011;14766;51.380;13.762;2023-12-20T03:09:23;4.00;;;2.70;;
27265;SDS011;14766;51.380;13.762;2023-12-20T03:11:50;2.80;;;2.35;;
27265;SDS011;14766;51.380;13.762;2023-12-20T03:14:17;2.55;;;2.00;;
27265;SDS011;14766;51.380;13.762;2023-12-20T03:16:50;3.53;;;2.40;;
27265;SDS011;14766;51.380;13.762;2023-12-20T03:19:18;3.50;;;2.10;;
27265;SDS011;14766;51.380;13.762;2023-12-20T03:21:46;3.08;;;2.63;;
27265;SDS011;14766;51.380;13.762;2023-12-20T03:24:13;2.22;;;1.90;;
27265;SDS011;14766;51.380;13.762;2023-12-20T03:26:40;2.67;;;2.38;;
27265;SDS011;14766;51.380;13.762;2023-12-20T03:29:07;2.60;;;2.25;;
27265;SDS011;14766;51.380;13.762;2023-12-20T03:31:34;2.58;;;2.17;;
27265;SDS011;14766;51.380;13.762;2023-12-20T03:34:02;2.97;;;2.38;;
27265;SDS011;14766;51.380;13.762;2023-12-20T03:36:29;2.90;;;2.60;;
27265;SDS011;14766;51.380;13.762;2023-12-20T03:38:56;3.25;;;2.38;;
27265;SDS011;14766;51.380;13.762;2023-12-20T03:41:23;2.50;;;2.30;;
27265;SDS011;14766;51.380;13.762;2023-12-20T03:43:50;3.60;;;2.05;;
27265;SDS011;14766;51.380;13.762;2023-12-20T03:46:17;4.05;;;2.70;;
27265;SDS011;14766;51.380;13.762;2023-12-20T03:48:44;2.88;;;2.17;;
27265;SDS011;14766;51.380;13.762;2023-12-20T03:51:11;2.45;;;1.95;;
27265;SDS011;14766;51.380;13.762;2023-12-20T03:53:38;2.83;;;2.35;;
27265;SDS011;14766;51.380;13.762;2023-12-20T03:56:07;2.55;;;2.13;;
27265;SDS011;14766;51.380;13.762;2023-12-20T03:58:34;2.55;;;2.20;;
27265;SDS011;14766;51.380;13.762;2023-12-20T04:01:02;2.47;;;2.10;;
27265;SDS011;14766;51.380;13.762;2023-12-20T04:03:30;2.30;;;1.95;;
27265;SDS011;14766;51.380;13.762;2023-12-20T04:05:59;4.53;;;2.10;;
27265;SDS011;14766;51.380;13.762;2023-12-20T04:08:26;2.70;;;2.08;;
27265;SDS011;14766;51.380;13.762;2023-12-20T04:10:53;3.15;;;2.20;;
27265;SDS011;14766;51.380;13.762;2023-12-20T04:13:20;2.75;;;2.35;;
27265;SDS011;14766;51.380;13.762;2023-12-20T04:15:47;2.63;;;2.30;;
27265;SDS011;14766;51.380;13.762;2023-12-20T04:18:16;3.72;;;2.40;;
27265;SDS011;14766;51.380;13.762;2023-12-20T04:20:44;3.90;;;2.33;;
27265;SDS011;14766;51.380;13.762;2023-12-20T04:23:11;2.75;;;2.08;;
27265;SDS011;14766;51.380;13.762;2023-12-20T04:25:38;2.85;;;2.08;;
27265;SDS011;14766;51.380;13.762;2023-12-20T04:28:06;2.30;;;1.92;;
27265;SDS011;14766;51.380;13.762;2023-12-20T04:30:33;1.50;;;1.40;;
27265;SDS011;14766;51.380;13.762;2023-12-20T04:33:00;2.20;;;2.00;;
27265;SDS011;14766;51.380;13.762;2023-12-20T04:35:28;2.17;;;1.98;;
27265;SDS011;14766;51.380;13.762;2023-12-20T04:37:56;2.05;;;1.85;;
27265;SDS011;14766;51.380;13.762;2023-12-20T04:40:24;2.58;;;1.90;;
27265;SDS011;14766;51.380;13.762;2023-12-20T04:42:52;3.47;;;2.15;;
27265;SDS011;14766;51.380;13.762;2023-12-20T04:45:19;2.45;;;1.80;;
27265;SDS011;14766;51.380;13.762;2023-12-20T04:47:47;2.05;;;1.83;;
27265;SDS011;14766;51.380;13.762;2023-12-20T04:50:14;1.98;;;1.77;;
27265;SDS011;14766;51.380;13.762;2023-12-20T04:52:42;2.85;;;1.77;;
27265;SDS011;14766;51.380;13.762;2023-12-20T04:55:10;3.20;;;1.77;;
27265;SDS011;14766;51.380;13.762;2023-12-20T04:57:37;1.92;;;1.70;;
27265;SDS011;14766;51.380;13.762;2023-12-20T05:00:04;1.67;;;1.58;;
27265;SDS011;14766;51.380;13.762;2023-12-20T05:02:32;1.60;;;1.50;;
27265;SDS011;14766;51.380;13.762;2023-12-20T05:04:59;2.05;;;1.50;;
27265;SDS011;14766;51.380;13.762;2023-12-20T05:07:26;1.92;;;1.42;;
27265;SDS011;14766;51.380;13.762;2023-12-20T05:09:53;1.90;;;1.70;;
27265;SDS011;14766;51.380;13.762;2023-12-20T05:12:21;1.50;;;1.40;;
27265;SDS011;14766;51.380;13.762;2023-12-20T05:14:48;1.42;;;1.33;;
27265;SDS011;14766;51.380;13.762;2023-12-20T05:17:15;2.40;;;1.50;;
27265;SDS011;14766;51.380;13.762;2023-12-20T05:19:42;2.50;;;1.58;;
27265;SDS011;14766;51.380;13.762;2023-12-20T05:22:09;2.75;;;2.05;;
27265;SDS011;14766;51.380;13.762;2023-12-20T05:24:36;1.83;;;1.33;;
27265;SDS011;14766;51.380;13.762;2023-12-20T05:27:03;3.92;;;2.35;;
27265;SDS011;14766;51.380;13.762;2023-12-20T05:29:31;3.10;;;2.40;;
27265;SDS011;14766;51.380;13.762;2023-12-20T05:31:58;2.28;;;1.90;;
27265;SDS011;14766;51.380;13.762;2023-12-20T05:34:25;2.47;;;1.85;;
27265;SDS011;14766;51.380;13.762;2023-12-20T05:36:53;1.60;;;1.50;;
27265;SDS011;14766;51.380;13.762;2023-12-20T05:39:20;2.35;;;1.35;;
27265;SDS011;14766;51.380;13.762;2023-12-20T05:41:48;2.25;;;1.50;;
27265;SDS011;14766;51.380;13.762;2023-12-20T05:44:15;1.63;;;1.10;;
27265;SDS011;14766;51.380;13.762;2023-12-20T05:46:42;2.70;;;1.50;;
27265;SDS011;14766;51.380;13.762;2023-12-20T05:49:09;1.88;;;1.42;;
27265;SDS011;14766;51.380;13.762;2023-12-20T05:51:37;2.45;;;1.92;;
27265;SDS011;14766;51.380;13.762;2023-12-20T05:54:05;2.05;;;1.52;;
27265;SDS011;14766;51.380;13.762;2023-12-20T05:56:32;2.90;;;1.40;;
27265;SDS011;14766;51.380;13.762;2023-12-20T05:59:00;2.03;;;1.35;;
27265;SDS011;14766;51.380;13.762;2023-12-20T06:01:27;2.30;;;1.85;;
27265;SDS011;14766;51.380;13.762;2023-12-20T06:03:55;2.45;;;1.80;;
27265;SDS011;14766;51.380;13.762;2023-12-20T06:06:25;1.90;;;1.45;;
27265;SDS011;14766;51.380;13.762;2023-12-20T06:08:52;2.72;;;1.60;;
27265;SDS011;14766;51.380;13.762;2023-12-20T06:11:20;1.60;;;1.50;;
27265;SDS011;14766;51.380;13.762;2023-12-20T06:13:47;2.70;;;2.20;;
27265;SDS011;14766;51.380;13.762;2023-12-20T06:16:15;2.15;;;1.95;;
27265;SDS011;14766;51.380;13.762;2023-12-20T06:18:43;2.88;;;1.77;;
27265;SDS011;14766;51.380;13.762;2023-12-20T06:21:10;3.75;;;2.22;;
27265;SDS011;14766;51.380;13.762;2023-12-20T06:23:39;2.38;;;2.10;;
27265;SDS011;14766;51.380;13.762;2023-12-20T06:26:07;2.40;;;2.20;;
27265;SDS011;14766;51.380;13.762;2023-12-20T06:28:35;3.92;;;2.95;;
27265;SDS011;14766;51.380;13.762;2023-12-20T06:31:06;3.55;;;2.33;;
27265;SDS011;14766;51.380;13.762;2023-12-20T06:33:33;3.15;;;2.40;;
27265;SDS011;14766;51.380;13.762;2023-12-20T06:36:00;2.70;;;2.25;;
27265;SDS011;14766;51.380;13.762;2023-12-20T06:38:27;2.83;;;2.30;;
27265;SDS011;14766;51.380;13.762;2023-12-20T06:40:55;3.58;;;2.35;;
27265;SDS011;14766;51.380;13.762;2023-12-20T06:43:24;3.20;;;2.65;;
27265;SDS011;14766;51.380;13.762;2023-12-20T06:46:11;2.90;;;2.60;;
27265;SDS011;14766;51.380;13.762;2023-12-20T06:48:40;2.88;;;2.38;;
27265;SDS011;14766;51.380;13.762;2023-12-20T06:51:10;5.30;;;2.70;;
27265;SDS011;14766;51.380;13.762;2023-12-20T06:53:39;4.45;;;3.13;;
27265;SDS011;14766;51.380;13.762;2023-12-20T06:56:06;3.50;;;2.92;;
27265;SDS011;14766;51.380;13.762;2023-12-20T06:58:33;4.40;;;3.28;;
27265;SDS011;14766;51.380;13.762;2023-12-20T07:01:01;3.55;;;3.08;;
27265;SDS011;14766;51.380;13.762;2023-12-20T07:03:29;4.55;;;3.28;;
27265;SDS011;14766;51.380;13.762;2023-12-20T07:05:56;4.07;;;3.10;;
27265;SDS011;14766;51.380;13.762;2023-12-20T07:08:23;4.75;;;2.90;;
27265;SDS011;14766;51.380;13.762;2023-12-20T07:10:50;4.05;;;2.90;;
27265;SDS011;14766;51.380;13.762;2023-12-20T07:13:17;4.00;;;3.08;;
27265;SDS011;14766;51.380;13.762;2023-12-20T07:15:44;3.85;;;2.88;;
27265;SDS011;14766;51.380;13.762;2023-12-20T07:18:11;5.65;;;2.83;;
27265;SDS011;14766;51.380;13.762;2023-12-20T07:20:39;4.05;;;2.63;;
27265;SDS011;14766;51.380;13.762;2023-12-20T07:23:06;4.97;;;2.25;;
27265;SDS011;14766;51.380;13.762;2023-12-20T07:25:33;5.93;;;2.90;;
27265;SDS011;14766;51.380;13.762;2023-12-20T07:28:01;5.72;;;2.55;;
27265;SDS011;14766;51.380;13.762;2023-12-20T07:30:28;4.18;;;2.67;;
27265;SDS011;14766;51.380;13.762;2023-12-20T07:32:57;4.47;;;2.83;;
27265;SDS011;14766;51.380;13.762;2023-12-20T07:35:25;3.53;;;2.40;;
27265;SDS011;14766;51.380;13.762;2023-12-20T07:37:52;3.25;;;2.33;;
27265;SDS011;14766;51.380;13.762;2023-12-20T07:40:19;4.90;;;2.25;;
27265;SDS011;14766;51.380;13.762;2023-12-20T07:42:47;3.85;;;2.00;;
27265;SDS011;14766;51.380;13.762;2023-12-20T07:45:14;5.25;;;2.45;;
27265;SDS011;14766;51.380;13.762;2023-12-20T07:47:41;4.53;;;2.25;;
27265;SDS011;14766;51.380;13.762;2023-12-20T07:50:09;4.03;;;1.95;;
27265;SDS011;14766;51.380;13.762;2023-12-20T07:52:37;3.47;;;1.67;;
27265;SDS011;14766;51.380;13.762;2023-12-20T07:55:05;5.78;;;1.92;;
27265;SDS011;14766;51.380;13.762;2023-12-20T07:57:33;3.17;;;2.15;;
27265;SDS011;14766;51.380;13.762;2023-12-20T08:00:00;4.80;;;2.10;;
27265;SDS011;14766;51.380;13.762;2023-12-20T08:02:29;3.40;;;1.85;;
27265;SDS011;14766;51.380;13.762;2023-12-20T08:04:56;3.85;;;2.20;;
27265;SDS011;14766;51.380;13.762;2023-12-20T08:07:23;3.65;;;2.30;;
27265;SDS011;14766;51.380;13.762;2023-12-20T08:09:50;4.35;;;2.83;;
27265;SDS011;14766;51.380;13.762;2023-12-20T08:12:18;5.82;;;2.95;;
27265;SDS011;14766;51.380;13.762;2023-12-20T08:14:45;4.65;;;3.50;;
27265;SDS011;14766;51.380;13.762;2023-12-20T08:17:12;4.68;;;3.35;;
27265;SDS011;14766;51.380;13.762;2023-12-20T08:19:42;5.00;;;3.50;;
27265;SDS011;14766;51.380;13.762;2023-12-20T08:22:10;5.10;;;3.45;;
27265;SDS011;14766;51.380;13.762;2023-12-20T08:24:38;6.43;;;3.75;;
27265;SDS011;14766;51.380;13.762;2023-12-20T08:27:05;4.88;;;3.88;;
27265;SDS011;14766;51.380;13.762;2023-12-20T08:29:32;4.53;;;3.67;;
27265;SDS011;14766;51.380;13.762;2023-12-20T08:31:59;3.40;;;3.00;;
27265;SDS011;14766;51.380;13.762;2023-12-20T08:34:27;3.38;;;2.65;;
27265;SDS011;14766;51.380;13.762;2023-12-20T08:36:55;3.42;;;2.75;;
27265;SDS011;14766;51.380;13.762;2023-12-20T08:39:22;2.97;;;2.50;;
27265;SDS011;14766;51.380;13.762;2023-12-20T08:41:49;3.20;;;2.67;;
27265;SDS011;14766;51.380;13.762;2023-12-20T08:44:16;3.75;;;2.53;;
27265;SDS011;14766;51.380;13.762;2023-12-20T08:46:43;2.85;;;2.33;;
27265;SDS011;14766;51.380;13.762;2023-12-20T08:49:10;4.72;;;2.10;;
27265;SDS011;14766;51.380;13.762;2023-12-20T08:51:38;4.22;;;2.10;;
27265;SDS011;14766;51.380;13.762;2023-12-20T08:54:08;3.28;;;2.53;;
27265;SDS011;14766;51.380;13.762;2023-12-20T08:56:36;3.22;;;1.95;;
27265;SDS011;14766;51.380;13.762;2023-12-20T08:59:03;3.60;;;2.08;;
27265;SDS011;14766;51.380;13.762;2023-12-20T09:01:30;2.53;;;1.55;;
27265;SDS011;14766;51.380;13.762;2023-12-20T09:03:57;2.95;;;1.70;;
27265;SDS011;14766;51.380;13.762;2023-12-20T09:06:24;4.28;;;2.30;;
27265;SDS011;14766;51.380;13.762;2023-12-20T09:08:52;3.58;;;1.80;;
27265;SDS011;14766;51.380;13.762;2023-12-20T09:11:19;2.45;;;1.85;;
27265;SDS011;14766;51.380;13.762;2023-12-20T09:13:46;4.72;;;1.83;;
27265;SDS011;14766;51.380;13.762;2023-12-20T09:16:13;5.82;;;2.60;;
27265;SDS011;14766;51.380;13.762;2023-12-20T09:18:42;3.33;;;2.00;;
27265;SDS011;14766;51.380;13.762;2023-12-20T09:21:10;3.40;;;1.70;;
27265;SDS011;14766;51.380;13.762;2023-12-20T09:23:37;3.38;;;1.52;;
27265;SDS011;14766;51.380;13.762;2023-12-20T09:26:05;7.18;;;1.80;;
27265;SDS011;14766;51.380;13.762;2023-12-20T09:28:32;2.88;;;1.60;;
27265;SDS011;14766;51.380;13.762;2023-12-20T09:31:04;3.55;;;1.17;;
27265;SDS011;14766;51.380;13.762;2023-12-20T09:33:32;3.70;;;1.23;;
27265;SDS011;14766;51.380;13.762;2023-12-20T09:36:01;1.67;;;0.95;;
27265;SDS011;14766;51.380;13.762;2023-12-20T09:38:29;3.47;;;1.55;;
27265;SDS011;14766;51.380;13.762;2023-12-20T09:40:56;1.45;;;1.00;;
27265;SDS011;14766;51.380;13.762;2023-12-20T09:43:24;6.00;;;2.50;;
27265;SDS011;14766;51.380;13.762;2023-12-20T09:45:52;2.58;;;1.33;;
27265;SDS011;14766;51.380;13.762;2023-12-20T09:48:21;7.25;;;2.08;;
27265;SDS011;14766;51.380;13.762;2023-12-20T09:50:48;7.97;;;3.10;;
27265;SDS011;14766;51.380;13.762;2023-12-20T09:53:19;4.35;;;2.00;;
27265;SDS011;14766;51.380;13.762;2023-12-20T09:55:51;7.22;;;2.97;;
27265;SDS011;14766;51.380;13.762;2023-12-20T09:58:19;6.05;;;1.42;;
27265;SDS011;14766;51.380;13.762;2023-12-20T10:00:46;5.30;;;2.15;;
27265;SDS011;14766;51.380;13.762;2023-12-20T10:03:14;3.85;;;1.60;;
27265;SDS011;14766;51.380;13.762;2023-12-20T10:05:42;6.50;;;2.53;;
27265;SDS011;14766;51.380;13.762;2023-12-20T10:08:11;2.03;;;1.30;;
27265;SDS011;14766;51.380;13.762;2023-12-20T10:10:38;7.65;;;2.50;;
27265;SDS011;14766;51.380;13.762;2023-12-20T10:13:14;5.35;;;2.17;;
27265;SDS011;14766;51.380;13.762;2023-12-20T10:15:42;7.18;;;2.88;;
27265;SDS011;14766;51.380;13.762;2023-12-20T10:18:11;2.78;;;1.52;;
27265;SDS011;14766;51.380;13.762;2023-12-20T10:20:40;7.28;;;2.30;;
27265;SDS011;14766;51.380;13.762;2023-12-20T10:23:08;3.90;;;2.08;;
27265;SDS011;14766;51.380;13.762;2023-12-20T10:25:37;4.35;;;1.70;;
27265;SDS011;14766;51.380;13.762;2023-12-20T10:28:08;4.00;;;1.90;;
27265;SDS011;14766;51.380;13.762;2023-12-20T10:30:39;4.90;;;2.13;;
27265;SDS011;14766;51.380;13.762;2023-12-20T10:33:08;5.32;;;2.00;;
27265;SDS011;14766;51.380;13.762;2023-12-20T10:35:37;5.82;;;1.90;;
27265;SDS011;14766;51.380;13.762;2023-12-20T10:38:10;6.45;;;1.60;;
27265;SDS011;14766;51.380;13.762;2023-12-20T10:40:39;6.38;;;1.90;;
27265;SDS011;14766;51.380;13.762;2023-12-20T10:43:08;2.10;;;1.35;;
27265;SDS011;14766;51.380;13.762;2023-12-20T10:45:36;7.60;;;2.13;;
27265;SDS011;14766;51.380;13.762;2023-12-20T10:48:04;4.07;;;1.75;;
27265;SDS011;14766;51.380;13.762;2023-12-20T10:50:32;3.78;;;1.58;;
27265;SDS011;14766;51.380;13.762;2023-12-20T10:53:02;8.25;;;2.60;;
27265;SDS011;14766;51.380;13.762;2023-12-20T10:55:30;5.13;;;1.65;;
27265;SDS011;14766;51.380;13.762;2023-12-20T10:58:01;5.60;;;1.70;;
27265;SDS011;14766;51.380;13.762;2023-12-20T11:00:29;3.83;;;1.77;;
27265;SDS011;14766;51.380;13.762;2023-12-20T11:03:01;4.53;;;1.98;;
27265;SDS011;14766;51.380;13.762;2023-12-20T11:08:47;4.28;;;2.03;;
27265;SDS011;14766;51.380;13.762;2023-12-20T11:11:43;7.03;;;2.00;;
27265;SDS011;14766;51.380;13.762;2023-12-20T11:14:20;4.07;;;1.63;;
27265;SDS011;14766;51.380;13.762;2023-12-20T11:17:04;2.70;;;1.60;;
27265;SDS011;14766;51.380;13.762;2023-12-20T11:19:35;8.30;;;1.70;;
27265;SDS011;14766;51.380;13.762;2023-12-20T11:22:03;4.82;;;2.17;;
27265;SDS011;14766;51.380;13.762;2023-12-20T11:24:32;6.07;;;1.90;;
27265;SDS011;14766;51.380;13.762;2023-12-20T11:27:00;3.53;;;1.92;;
27265;SDS011;14766;51.380;13.762;2023-12-20T11:32:27;6.53;;;1.98;;
27265;SDS011;14766;51.380;13.762;2023-12-20T11:34:59;8.77;;;2.80;;
27265;SDS011;14766;51.380;13.762;2023-12-20T11:37:35;6.80;;;2.10;;
27265;SDS011;14766;51.380;13.762;2023-12-20T11:40:07;5.28;;;2.30;;
27265;SDS011;14766;51.380;13.762;2023-12-20T11:42:38;4.45;;;1.80;;
27265;SDS011;14766;51.380;13.762;2023-12-20T11:45:10;5.95;;;1.98;;
27265;SDS011;14766;51.380;13.762;2023-12-20T11:47:48;8.30;;;2.35;;
27265;SDS011;14766;51.380;13.762;2023-12-20T11:50:17;4.53;;;1.75;;
27265;SDS011;14766;51.380;13.762;2023-12-20T11:52:46;4.00;;;1.70;;
27265;SDS011;14766;51.380;13.762;2023-12-20T11:55:14;6.50;;;2.38;;
27265;SDS011;14766;51.380;13.762;2023-12-20T11:57:41;5.00;;;1.58;;
27265;SDS011;14766;51.380;13.762;2023-12-20T12:00:10;4.00;;;1.45;;
27265;SDS011;14766;51.380;13.762;2023-12-20T12:02:38;5.60;;;1.73;;
27265;SDS011;14766;51.380;13.762;2023-12-20T12:05:05;2.97;;;1.40;;
27265;SDS011;14766;51.380;13.762;2023-12-20T12:07:34;4.70;;;1.70;;
27265;SDS011;14766;51.380;13.762;2023-12-20T12:10:01;7.15;;;2.00;;
27265;SDS011;14766;51.380;13.762;2023-12-20T12:12:30;4.80;;;1.58;;
27265;SDS011;14766;51.380;13.762;2023-12-20T12:14:59;4.28;;;1.80;;
27265;SDS011;14766;51.380;13.762;2023-12-20T12:17:26;4.03;;;1.48;;
27265;SDS011;14766;51.380;13.762;2023-12-20T12:20:01;6.07;;;2.28;;
27265;SDS011;14766;51.380;13.762;2023-12-20T12:22:32;6.03;;;1.95;;
27265;SDS011;14766;51.380;13.762;2023-12-20T12:25:08;7.72;;;2.45;;
27265;SDS011;14766;51.380;13.762;2023-12-20T12:27:41;5.72;;;2.33;;
27265;SDS011;14766;51.380;13.762;2023-12-20T12:30:09;6.32;;;2.47;;
27265;SDS011;14766;51.380;13.762;2023-12-20T12:32:39;7.55;;;2.25;;
27265;SDS011;14766;51.380;13.762;2023-12-20T12:35:07;5.78;;;2.00;;
27265;SDS011;14766;51.380;13.762;2023-12-20T12:37:39;5.65;;;2.35;;
27265;SDS011;14766;51.380;13.762;2023-12-20T12:40:11;4.00;;;1.50;;
27265;SDS011;14766;51.380;13.762;2023-12-20T12:42:41;6.35;;;2.03;;
27265;SDS011;14766;51.380;13.762;2023-12-20T12:45:11;8.13;;;2.45;;
27265;SDS011;14766;51.380;13.762;2023-12-20T12:47:38;5.50;;;1.67;;
27265;SDS011;14766;51.380;13.762;2023-12-20T12:50:06;6.80;;;1.45;;
27265;SDS011;14766;51.380;13.762;2023-12-20T12:52:34;7.00;;;1.85;;
27265;SDS011;14766;51.380;13.762;2023-12-20T12:55:03;5.18;;;1.98;;
27265;SDS011;14766;51.380;13.762;2023-12-20T12:57:31;6.78;;;1.80;;
27265;SDS011;14766;51.380;13.762;2023-12-20T13:00:00;7.50;;;2.45;;
27265;SDS011;14766;51.380;13.762;2023-12-20T13:02:29;6.65;;;1.60;;
27265;SDS011;14766;51.380;13.762;2023-12-20T13:04:57;5.97;;;1.70;;
27265;SDS011;14766;51.380;13.762;2023-12-20T13:07:24;5.63;;;1.83;;
27265;SDS011;14766;51.380;13.762;2023-12-20T13:09:51;4.10;;;1.60;;
27265;SDS011;14766;51.380;13.762;2023-12-20T13:12:20;3.13;;;1.50;;
27265;SDS011;14766;51.380;13.762;2023-12-20T13:14:48;4.22;;;1.80;;
27265;SDS011;14766;51.380;13.762;2023-12-20T13:17:15;6.50;;;1.90;;
27265;SDS011;14766;51.380;13.762;2023-12-20T13:19:44;5.63;;;1.77;;
27265;SDS011;14766;51.380;13.762;2023-12-20T13:22:13;5.78;;;2.13;;
27265;SDS011;14766;51.380;13.762;2023-12-20T13:24:41;7.22;;;1.90;;
27265;SDS011;14766;51.380;13.762;2023-12-20T13:27:10;6.30;;;2.67;;
27265;SDS011;14766;51.380;13.762;2023-12-20T13:29:38;4.75;;;1.50;;
27265;SDS011;14766;51.380;13.762;2023-12-20T13:32:06;6.90;;;2.00;;
27265;SDS011;14766;51.380;13.762;2023-12-20T13:34:34;4.55;;;1.65;;
27265;SDS011;14766;51.380;13.762;2023-12-20T13:37:02;6.57;;;1.88;;
27265;SDS011;14766;51.380;13.762;2023-12-20T13:39:31;5.07;;;1.52;;
27265;SDS011;14766;51.380;13.762;2023-12-20T13:41:58;6.72;;;2.72;;
27265;SDS011;14766;51.380;13.762;2023-12-20T13:44:27;7.40;;;2.28;;
27265;SDS011;14766;51.380;13.762;2023-12-20T13:46:57;5.07;;;2.00;;
27265;SDS011;14766;51.380;13.762;2023-12-20T13:49:27;6.80;;;2.63;;
27265;SDS011;14766;51.380;13.762;2023-12-20T13:51:54;5.35;;;2.00;;
27265;SDS011;14766;51.380;13.762;2023-12-20T13:54:22;10.05;;;2.58;;
27265;SDS011;14766;51.380;13.762;2023-12-20T13:56:51;6.80;;;2.25;;
27265;SDS011;14766;51.380;13.762;2023-12-20T13:59:37;8.38;;;4.07;;
27265;SDS011;14766;51.380;13.762;2023-12-20T14:02:05;5.35;;;2.05;;
27265;SDS011;14766;51.380;13.762;2023-12-20T14:04:32;4.22;;;2.20;;
27265;SDS011;14766;51.380;13.762;2023-12-20T14:07:10;3.72;;;2.15;;
27265;SDS011;14766;51.380;13.762;2023-12-20T14:09:39;4.35;;;2.38;;
27265;SDS011;14766;51.380;13.762;2023-12-20T14:12:13;6.65;;;1.95;;
27265;SDS011;14766;51.380;13.762;2023-12-20T14:14:40;4.93;;;1.50;;
27265;SDS011;14766;51.380;13.762;2023-12-20T14:17:08;6.95;;;1.65;;
27265;SDS011;14766;51.380;13.762;2023-12-20T14:19:35;5.03;;;1.60;;
27265;SDS011;14766;51.380;13.762;2023-12-20T14:22:04;4.90;;;1.90;;
27265;SDS011;14766;51.380;13.762;2023-12-20T14:24:31;8.30;;;1.90;;
27265;SDS011;14766;51.380;13.762;2023-12-20T14:26:59;5.32;;;1.38;;
27265;SDS011;14766;51.380;13.762;2023-12-20T14:29:27;4.13;;;1.35;;
27265;SDS011;14766;51.380;13.762;2023-12-20T14:31:54;3.30;;;1.23;;
27265;SDS011;14766;51.380;13.762;2023-12-20T14:34:21;4.57;;;1.30;;
27265;SDS011;14766;51.380;13.762;2023-12-20T14:36:51;5.40;;;1.40;;
27265;SDS011;14766;51.380;13.762;2023-12-20T14:39:19;3.45;;;1.40;;
27265;SDS011;14766;51.380;13.762;2023-12-20T14:41:46;4.75;;;1.63;;
27265;SDS011;14766;51.380;13.762;2023-12-20T14:44:13;4.30;;;1.80;;
27265;SDS011;14766;51.380;13.762;2023-12-20T14:46:43;6.38;;;1.40;;